createdAt,value
2018-04-07T00:01:33.680Z,3.40
2018-04-07T00:04:01.112Z,3.13
2018-04-07T00:06:28.572Z,3.37
2018-04-07T00:08:56.001Z,2.90
2018-04-07T00:11:24.220Z,2.80
2018-04-07T00:13:51.679Z,3.00
2018-04-07T00:16:19.140Z,3.13
2018-04-07T00:18:46.580Z,2.77
2018-04-07T00:21:14.029Z,2.93
2018-04-07T00:23:41.473Z,3.00
2018-04-07T00:26:08.920Z,2.70
2018-04-07T00:28:37.137Z,2.80
2018-04-07T00:31:04.614Z,3.03
2018-04-07T00:33:32.068Z,2.60
2018-04-07T00:35:59.522Z,3.10
2018-04-07T00:38:26.975Z,2.23
2018-04-07T00:40:54.458Z,3.07
2018-04-07T00:43:21.901Z,2.90
2018-04-07T00:45:49.353Z,2.63
2018-04-07T00:48:16.799Z,2.80
2018-04-07T00:50:44.249Z,2.53
2018-04-07T00:53:11.697Z,2.80
2018-04-07T00:55:39.139Z,3.10
2018-04-07T00:58:06.594Z,2.70
2018-04-07T01:00:34.785Z,2.63
2018-04-07T01:03:02.252Z,3.23
2018-04-07T01:05:29.676Z,3.47
2018-04-07T01:07:57.123Z,2.70
2018-04-07T01:10:25.340Z,2.53
2018-04-07T01:12:52.788Z,2.97
2018-04-07T01:15:20.231Z,3.10
2018-04-07T01:17:47.688Z,3.63
2018-04-07T01:20:15.121Z,3.47
2018-04-07T01:22:43.352Z,3.20
2018-04-07T01:25:10.804Z,3.20
2018-04-07T01:27:38.255Z,3.37
2018-04-07T01:30:05.699Z,3.17
2018-04-07T01:32:33.141Z,3.80
2018-04-07T01:35:00.591Z,4.03
2018-04-07T01:37:28.804Z,3.87
2018-04-07T01:39:56.261Z,3.50
2018-04-07T01:42:23.707Z,3.13
2018-04-07T01:44:51.175Z,4.37
2018-04-07T01:47:18.607Z,3.77
2018-04-07T01:49:46.054Z,3.40
2018-04-07T01:52:14.253Z,3.73
2018-04-07T01:54:41.713Z,3.50
2018-04-07T01:57:09.143Z,3.13
2018-04-07T01:59:37.360Z,3.17
2018-04-07T02:02:04.808Z,3.30
2018-04-07T02:04:32.253Z,3.10
2018-04-07T02:06:59.694Z,3.47
2018-04-07T02:09:27.140Z,3.50
2018-04-07T02:11:55.361Z,3.70
2018-04-07T02:14:22.808Z,3.50
2018-04-07T02:16:50.245Z,2.83
2018-04-07T02:19:17.702Z,3.97
2018-04-07T02:21:45.140Z,3.63
2018-04-07T02:24:13.356Z,3.40
2018-04-07T02:26:40.804Z,3.93
2018-04-07T02:29:08.272Z,3.67
2018-04-07T02:31:35.711Z,3.23
2018-04-07T02:34:03.160Z,4.00
2018-04-07T02:36:30.599Z,4.10
2018-04-07T02:38:58.817Z,3.87
2018-04-07T02:41:26.275Z,4.03
2018-04-07T02:43:53.726Z,3.70
2018-04-07T02:46:21.154Z,3.77
2018-04-07T02:48:48.602Z,4.33
2018-04-07T02:51:16.820Z,4.00
2018-04-07T02:53:44.266Z,3.60
2018-04-07T02:56:11.723Z,3.97
2018-04-07T02:58:39.190Z,3.60
2018-04-07T03:01:06.637Z,4.43
2018-04-07T03:03:34.093Z,3.27
2018-04-07T03:06:01.534Z,3.87
2018-04-07T03:08:28.974Z,3.73
2018-04-07T03:10:57.190Z,3.40
2018-04-07T03:13:24.629Z,3.53
2018-04-07T03:15:52.085Z,3.70
2018-04-07T03:18:19.529Z,4.40
2018-04-07T03:20:47.753Z,3.80
2018-04-07T03:23:15.193Z,3.80
2018-04-07T03:25:42.644Z,3.50
2018-04-07T03:28:10.091Z,3.73
2018-04-07T03:30:37.539Z,3.77
2018-04-07T03:33:05.007Z,3.80
2018-04-07T03:35:32.461Z,4.27
2018-04-07T03:37:59.901Z,4.40
2018-04-07T03:40:28.124Z,4.47
2018-04-07T03:42:55.573Z,4.70
2018-04-07T03:45:23.022Z,3.77
2018-04-07T03:47:50.461Z,4.13
2018-04-07T03:50:17.904Z,4.37
2018-04-07T03:52:46.126Z,3.63
2018-04-07T03:55:13.581Z,4.93
2018-04-07T03:57:41.044Z,4.50
2018-04-07T04:00:08.482Z,4.43
2018-04-07T04:02:35.936Z,4.43
2018-04-07T04:05:03.374Z,4.07
2018-04-07T04:07:31.618Z,3.87
2018-04-07T04:09:59.058Z,4.33
2018-04-07T04:12:26.509Z,3.60
2018-04-07T04:14:54.737Z,4.23
2018-04-07T04:17:22.944Z,3.87
2018-04-07T04:19:50.379Z,3.40
2018-04-07T04:22:17.820Z,3.60
2018-04-07T04:24:46.021Z,4.20
2018-04-07T04:27:13.477Z,3.70
2018-04-07T04:29:40.908Z,3.80
2018-04-07T04:32:09.152Z,4.23
2018-04-07T04:34:36.590Z,3.50
2018-04-07T04:37:04.040Z,3.90
2018-04-07T04:39:31.472Z,3.93
2018-04-07T04:41:58.980Z,4.40
2018-04-07T04:44:26.437Z,3.50
2018-04-07T04:46:53.878Z,4.30
2018-04-07T04:49:21.324Z,4.10
2018-04-07T04:51:48.800Z,3.77
2018-04-07T04:54:16.250Z,4.30
2018-04-07T04:56:43.738Z,3.90
2018-04-07T04:59:11.171Z,4.10
2018-04-07T05:01:39.385Z,4.20
2018-04-07T05:04:07.595Z,4.30
2018-04-07T05:06:35.021Z,3.70
2018-04-07T05:09:03.243Z,4.57
2018-04-07T05:11:30.672Z,4.00
2018-04-07T05:13:58.113Z,4.10
2018-04-07T05:16:26.318Z,4.53
2018-04-07T05:18:53.770Z,3.93
2018-04-07T05:21:21.212Z,3.77
2018-04-07T05:23:48.661Z,4.47
2018-04-07T05:26:16.876Z,4.10
2018-04-07T05:28:44.317Z,4.10
2018-04-07T05:31:11.753Z,4.30
2018-04-07T05:33:39.990Z,3.90
2018-04-07T05:36:07.441Z,3.97
2018-04-07T05:38:34.908Z,5.20
2018-04-07T05:41:02.369Z,4.17
2018-04-07T05:43:29.843Z,4.33
2018-04-07T05:45:58.249Z,4.80
2018-04-07T05:48:25.692Z,4.40
2018-04-07T05:50:53.125Z,4.40
2018-04-07T05:53:20.592Z,4.00
2018-04-07T05:55:48.031Z,4.60
2018-04-07T05:58:15.486Z,4.60
2018-04-07T06:00:42.922Z,4.83
2018-04-07T06:03:10.373Z,4.20
2018-04-07T06:05:37.820Z,4.07
2018-04-07T06:08:05.270Z,4.70
2018-04-07T06:10:32.709Z,5.30
2018-04-07T06:13:00.202Z,10.60
2018-04-07T06:15:27.656Z,9.23
2018-04-07T06:17:55.103Z,6.50
2018-04-07T06:20:22.559Z,6.40
2018-04-07T06:22:50.013Z,5.40
2018-04-07T06:25:17.440Z,5.20
2018-04-07T06:27:45.664Z,5.57
2018-04-07T06:30:13.132Z,5.10
2018-04-07T06:32:40.572Z,4.63
2018-04-07T06:35:08.032Z,5.10
2018-04-07T06:37:35.493Z,4.30
2018-04-07T06:40:02.939Z,4.33
2018-04-07T06:42:30.393Z,4.80
2018-04-07T06:44:57.840Z,6.10
2018-04-07T06:47:25.290Z,6.00
2018-04-07T06:49:53.491Z,5.10
2018-04-07T06:52:20.954Z,4.73
2018-04-07T06:54:48.465Z,5.20
2018-04-07T06:57:16.686Z,4.57
2018-04-07T06:59:44.140Z,4.30
2018-04-07T07:02:11.590Z,4.00
2018-04-07T07:04:39.048Z,4.37
2018-04-07T07:07:06.476Z,4.53
2018-04-07T07:09:34.688Z,4.50
2018-04-07T07:12:02.145Z,4.77
2018-04-07T07:14:29.605Z,4.20
2018-04-07T07:16:57.068Z,4.70
2018-04-07T07:19:24.544Z,4.07
2018-04-07T07:21:51.984Z,4.00
2018-04-07T07:24:19.484Z,4.70
2018-04-07T07:26:46.893Z,3.87
2018-04-07T07:29:14.361Z,4.60
2018-04-07T07:31:41.792Z,4.90
2018-04-07T07:34:09.261Z,5.27
2018-04-07T07:36:36.742Z,5.03
2018-04-07T07:39:04.141Z,5.00
2018-04-07T07:41:32.353Z,5.07
2018-04-07T07:43:59.797Z,4.57
2018-04-07T07:46:27.253Z,5.87
2018-04-07T07:48:54.701Z,6.17
2018-04-07T07:51:22.162Z,5.53
2018-04-07T07:53:49.619Z,5.07
2018-04-07T07:56:17.066Z,5.77
2018-04-07T07:58:44.506Z,6.47
2018-04-07T08:01:12.729Z,6.13
2018-04-07T08:03:40.177Z,6.53
2018-04-07T08:06:07.633Z,7.20
2018-04-07T08:08:35.093Z,6.73
2018-04-07T08:11:02.552Z,6.43
2018-04-07T08:13:30.004Z,6.00
2018-04-07T08:15:57.468Z,5.87
2018-04-07T08:18:24.918Z,6.40
2018-04-07T08:20:52.398Z,6.10
2018-04-07T08:23:19.860Z,5.80
2018-04-07T08:25:47.312Z,6.07
2018-04-07T08:28:14.754Z,6.60
2018-04-07T08:30:42.220Z,7.07
2018-04-07T08:33:10.442Z,6.37
2018-04-07T08:35:38.657Z,6.33
2018-04-07T08:38:06.102Z,6.83
2018-04-07T08:40:33.559Z,6.20
2018-04-07T08:43:01.004Z,7.10
2018-04-07T08:45:28.470Z,7.83
2018-04-07T08:47:55.913Z,6.93
2018-04-07T08:50:24.132Z,7.27
2018-04-07T08:52:51.572Z,7.83
2018-04-07T08:55:19.051Z,7.30
2018-04-07T08:57:47.256Z,7.80
2018-04-07T09:00:14.701Z,7.63
2018-04-07T09:02:42.148Z,7.37
2018-04-07T09:05:09.635Z,7.87
2018-04-07T09:07:37.052Z,7.57
2018-04-07T09:10:04.496Z,6.90
2018-04-07T09:12:31.952Z,7.50
2018-04-07T09:14:59.483Z,7.83
2018-04-07T09:17:26.986Z,7.40
2018-04-07T09:19:54.457Z,7.60
2018-04-07T09:22:21.972Z,7.90
2018-04-07T09:24:49.422Z,5.77
2018-04-07T09:27:16.961Z,6.93
2018-04-07T09:29:44.461Z,7.30
2018-04-07T09:32:11.924Z,7.67
2018-04-07T09:34:39.368Z,6.50
2018-04-07T09:37:06.832Z,7.20
2018-04-07T09:39:34.296Z,6.37
2018-04-07T09:42:01.778Z,6.20
2018-04-07T09:44:29.200Z,7.27
2018-04-07T09:46:56.658Z,7.77
2018-04-07T09:49:24.108Z,6.87
2018-04-07T09:51:51.557Z,6.93
2018-04-07T09:54:19.009Z,6.77
2018-04-07T09:56:46.472Z,8.00
2018-04-07T09:59:13.929Z,8.17
2018-04-07T10:01:42.165Z,7.40
2018-04-07T10:04:09.612Z,7.30
2018-04-07T10:06:37.069Z,7.70
2018-04-07T10:09:05.326Z,7.37
2018-04-07T10:11:32.832Z,7.10
2018-04-07T10:14:01.053Z,7.17
2018-04-07T10:16:28.508Z,6.70
2018-04-07T10:18:55.959Z,6.47
2018-04-07T10:21:23.412Z,6.50
2018-04-07T10:23:50.873Z,6.53
2018-04-07T10:26:18.312Z,6.10
2018-04-07T10:28:45.777Z,6.10
2018-04-07T10:31:13.243Z,6.03
2018-04-07T10:33:40.724Z,6.63
2018-04-07T10:36:08.210Z,5.97
2018-04-07T10:38:35.654Z,5.90
2018-04-07T10:41:03.092Z,6.17
2018-04-07T10:43:30.545Z,5.80
2018-04-07T10:45:58.763Z,5.40
2018-04-07T10:48:26.209Z,5.57
2018-04-07T10:50:53.782Z,6.27
2018-04-07T10:53:22.000Z,6.50
2018-04-07T10:55:49.445Z,5.87
2018-04-07T10:58:16.913Z,5.67
2018-04-07T11:00:44.365Z,6.00
2018-04-07T11:03:11.824Z,5.43
2018-04-07T11:05:39.260Z,5.70
2018-04-07T11:08:06.726Z,5.80
2018-04-07T11:10:34.234Z,5.87
2018-04-07T11:13:02.394Z,6.70
2018-04-07T11:15:29.829Z,7.07
2018-04-07T11:17:57.285Z,5.80
2018-04-07T11:20:24.748Z,6.60
2018-04-07T11:22:52.212Z,6.67
2018-04-07T11:25:19.659Z,6.23
2018-04-07T11:27:47.119Z,6.03
2018-04-07T11:30:14.572Z,6.00
2018-04-07T11:32:42.025Z,6.13
2018-04-07T11:35:09.488Z,6.50
2018-04-07T11:37:36.945Z,6.10
2018-04-07T11:40:05.222Z,5.77
2018-04-07T11:42:32.660Z,7.40
2018-04-07T11:45:00.113Z,6.70
2018-04-07T11:47:27.568Z,7.20
2018-04-07T11:49:55.788Z,6.53
2018-04-07T11:52:23.238Z,6.73
2018-04-07T11:54:50.709Z,6.77
2018-04-07T11:57:18.164Z,7.80
2018-04-07T11:59:45.616Z,7.30
2018-04-07T12:02:13.077Z,8.13
2018-04-07T12:04:40.546Z,7.93
2018-04-07T12:07:07.991Z,7.17
2018-04-07T12:09:35.458Z,8.57
2018-04-07T12:12:02.890Z,6.70
2018-04-07T12:14:30.376Z,7.80
2018-04-07T12:16:58.213Z,7.57
2018-04-07T12:19:25.949Z,7.47
2018-04-07T12:21:53.381Z,8.17
2018-04-07T12:24:20.834Z,7.20
2018-04-07T12:26:48.277Z,6.20
2018-04-07T12:29:15.737Z,5.93
2018-04-07T12:31:47.395Z,5.87
2018-04-07T12:34:14.857Z,5.40
2018-04-07T12:36:42.296Z,6.13
2018-04-07T12:39:09.756Z,6.00
2018-04-07T12:41:37.197Z,7.10
2018-04-07T12:44:04.658Z,5.80
2018-04-07T12:46:32.107Z,7.47
2018-04-07T12:48:59.572Z,6.50
2018-04-07T12:51:27.025Z,6.90
2018-04-07T12:53:54.478Z,5.50
2018-04-07T12:56:21.920Z,4.90
2018-04-07T12:58:49.413Z,5.57
2018-04-07T13:01:16.884Z,5.87
2018-04-07T13:03:44.310Z,4.63
2018-04-07T13:06:11.772Z,5.90
2018-04-07T13:08:40.003Z,6.07
2018-04-07T13:11:08.223Z,5.37
2018-04-07T13:13:35.664Z,5.80
2018-04-07T13:16:03.113Z,5.07
2018-04-07T13:18:30.575Z,5.00
2018-04-07T13:20:58.026Z,5.60
2018-04-07T13:23:25.480Z,6.17
2018-04-07T13:25:52.938Z,7.00
2018-04-07T13:28:20.377Z,7.53
2018-04-07T13:30:48.626Z,6.83
2018-04-07T13:33:16.085Z,7.10
2018-04-07T13:35:43.544Z,6.70
2018-04-07T13:38:11.013Z,6.07
2018-04-07T13:40:38.457Z,6.50
2018-04-07T13:43:05.928Z,6.90
2018-04-07T13:45:33.385Z,6.80
2018-04-07T13:48:00.855Z,7.33
2018-04-07T13:50:29.102Z,6.60
2018-04-07T13:52:56.546Z,7.30
2018-04-07T13:55:24.014Z,6.17
2018-04-07T13:57:51.465Z,7.27
2018-04-07T14:00:18.941Z,5.90
2018-04-07T14:02:46.417Z,6.17
2018-04-07T14:05:14.647Z,5.23
2018-04-07T14:07:42.090Z,6.57
2018-04-07T14:10:09.561Z,5.33
2018-04-07T14:12:37.028Z,5.13
2018-04-07T14:15:04.529Z,5.97
2018-04-07T14:17:31.988Z,5.90
2018-04-07T14:20:00.216Z,5.40
2018-04-07T14:22:27.669Z,7.17
2018-04-07T14:24:55.132Z,6.03
2018-04-07T14:27:22.597Z,5.10
2018-04-07T14:29:50.045Z,5.43
2018-04-07T14:32:17.532Z,4.77
2018-04-07T14:34:45.737Z,5.07
2018-04-07T14:37:13.202Z,4.63
2018-04-07T14:39:40.652Z,5.40
2018-04-07T14:42:08.132Z,4.97
2018-04-07T14:44:35.587Z,4.57
2018-04-07T14:47:03.031Z,4.90
2018-04-07T14:49:30.489Z,4.40
2018-04-07T14:51:57.932Z,4.30
2018-04-07T14:54:25.407Z,4.00
2018-04-07T14:56:52.877Z,4.47
2018-04-07T14:59:20.361Z,4.37
2018-04-07T15:01:47.808Z,4.60
2018-04-07T15:04:15.264Z,4.70
2018-04-07T15:06:42.725Z,4.70
2018-04-07T15:09:10.174Z,4.90
2018-04-07T15:11:37.645Z,5.33
2018-04-07T15:14:05.088Z,5.50
2018-04-07T15:16:32.550Z,5.10
2018-04-07T15:18:59.989Z,4.80
2018-04-07T15:21:27.446Z,4.60
2018-04-07T15:23:54.906Z,6.03
2018-04-07T15:26:22.360Z,5.90
2018-04-07T15:28:49.824Z,5.77
2018-04-07T15:31:17.282Z,5.57
2018-04-07T15:33:44.725Z,6.10
2018-04-07T15:36:12.180Z,7.77
2018-04-07T15:38:39.641Z,5.83
2018-04-07T15:41:07.106Z,5.13
2018-04-07T15:43:34.558Z,3.53
2018-04-07T15:46:02.018Z,4.10
2018-04-07T15:48:29.531Z,4.17
2018-04-07T15:50:56.928Z,4.40
2018-04-07T15:53:24.372Z,4.00
2018-04-07T15:55:51.816Z,4.60
2018-04-07T15:58:20.033Z,4.63
2018-04-07T16:00:47.549Z,3.80
2018-04-07T16:03:14.957Z,4.10
2018-04-07T16:05:42.411Z,5.00
2018-04-07T16:08:09.977Z,3.70
2018-04-07T16:10:37.420Z,3.47
2018-04-07T16:13:04.888Z,3.53
2018-04-07T16:15:32.366Z,3.77
2018-04-07T16:17:59.808Z,4.23
2018-04-07T16:20:27.248Z,3.93
2018-04-07T16:22:54.713Z,3.40
2018-04-07T16:25:22.156Z,3.53
2018-04-07T16:27:49.629Z,3.33
2018-04-07T16:30:17.412Z,3.77
2018-04-07T16:32:44.870Z,5.07
2018-04-07T16:35:12.318Z,4.63
2018-04-07T16:37:39.768Z,4.00
2018-04-07T16:40:07.225Z,3.20
2018-04-07T16:42:34.684Z,3.20
2018-04-07T16:45:02.129Z,2.80
2018-04-07T16:47:29.612Z,4.20
2018-04-07T16:49:57.065Z,2.73
2018-04-07T16:52:24.536Z,3.17
2018-04-07T16:54:51.969Z,3.37
2018-04-07T16:57:19.421Z,6.07
2018-04-07T16:59:46.904Z,5.00
2018-04-07T17:02:14.339Z,4.90
2018-04-07T17:04:41.836Z,4.67
2018-04-07T17:07:10.076Z,5.00
2018-04-07T17:09:37.534Z,4.17
2018-04-07T17:12:04.981Z,4.27
2018-04-07T17:14:32.441Z,4.17
2018-04-07T17:16:59.878Z,3.93
2018-04-07T17:19:27.348Z,4.13
2018-04-07T17:21:54.804Z,4.30
2018-04-07T17:24:22.253Z,3.47
2018-04-07T17:26:49.730Z,3.97
2018-04-07T17:29:17.188Z,3.80
2018-04-07T17:31:44.637Z,4.50
2018-04-07T17:34:12.200Z,3.63
2018-04-07T17:36:39.646Z,3.83
2018-04-07T17:39:07.101Z,3.23
2018-04-07T17:41:34.554Z,3.70
2018-04-07T17:44:02.009Z,4.90
2018-04-07T17:46:29.450Z,4.73
2018-04-07T17:49:05.991Z,4.60
2018-04-07T17:51:25.104Z,7.60
2018-04-07T17:53:52.562Z,8.00
2018-04-07T17:56:20.014Z,8.53
2018-04-07T17:58:47.474Z,7.30
2018-04-07T18:01:14.919Z,6.20
2018-04-07T18:03:42.392Z,6.43
2018-04-07T18:06:09.858Z,5.70
2018-04-07T18:08:37.316Z,5.00
2018-04-07T18:11:04.767Z,3.70
2018-04-07T18:13:32.233Z,4.00
2018-04-07T18:15:59.701Z,4.40
2018-04-07T18:18:27.290Z,4.63
2018-04-07T18:20:54.941Z,6.10
2018-04-07T18:23:23.214Z,6.23
2018-04-07T18:25:51.454Z,5.17
2018-04-07T18:28:18.914Z,5.23
2018-04-07T18:30:46.376Z,5.00
2018-04-07T18:33:24.715Z,5.37
2018-04-07T18:35:52.933Z,5.20
2018-04-07T18:38:20.407Z,4.70
2018-04-07T18:40:47.865Z,5.33
2018-04-07T18:43:15.328Z,5.03
2018-04-07T18:45:42.799Z,4.97
2018-04-07T18:48:10.233Z,6.10
2018-04-07T18:50:37.695Z,5.67
2018-04-07T18:53:05.149Z,6.03
2018-04-07T18:55:33.450Z,7.80
2018-04-07T18:58:00.890Z,8.50
2018-04-07T19:00:28.399Z,5.90
2018-04-07T19:02:55.860Z,6.10
2018-04-07T19:05:24.085Z,5.30
2018-04-07T19:07:51.545Z,6.40
2018-04-07T19:10:19.003Z,5.40
2018-04-07T19:12:46.444Z,5.57
2018-04-07T19:15:13.921Z,5.07
2018-04-07T19:17:41.367Z,4.93
2018-04-07T19:20:08.830Z,5.00
2018-04-07T19:22:36.306Z,4.90
2018-04-07T19:25:03.750Z,5.23
2018-04-07T19:27:31.202Z,4.70
2018-04-07T19:29:58.656Z,5.60
2018-04-07T19:32:26.394Z,5.40
2018-04-07T19:34:53.876Z,5.63
2018-04-07T19:37:21.493Z,5.67
2018-04-07T19:39:49.001Z,5.53
2018-04-07T19:42:16.545Z,7.47
2018-04-07T19:44:45.349Z,5.90
2018-04-07T19:47:12.894Z,5.60
2018-04-07T19:49:40.369Z,6.20
2018-04-07T19:52:07.949Z,5.50
2018-04-07T19:54:35.416Z,5.70
2018-04-07T19:57:02.890Z,4.40
2018-04-07T19:59:30.349Z,5.20
2018-04-07T20:01:57.807Z,5.70
2018-04-07T20:04:25.296Z,3.80
2018-04-07T20:06:52.806Z,4.53
2018-04-07T20:09:20.252Z,4.20
2018-04-07T20:11:47.753Z,4.20
2018-04-07T20:14:15.977Z,6.30
2018-04-07T20:16:43.450Z,5.50
2018-04-07T20:19:10.931Z,4.43
2018-04-07T20:21:38.400Z,4.10
2018-04-07T20:24:06.641Z,6.77
2018-04-07T20:26:34.094Z,5.20
2018-04-07T20:29:01.680Z,5.30
2018-04-07T20:31:29.144Z,4.77
2018-04-07T20:33:57.356Z,4.83
2018-04-07T20:36:25.107Z,5.40
2018-04-07T20:38:53.420Z,4.97
2018-04-07T20:41:20.876Z,5.10
2018-04-07T20:43:48.366Z,4.83
2018-04-07T20:46:15.835Z,5.83
2018-04-07T20:48:44.069Z,5.23
2018-04-07T20:51:11.547Z,6.40
2018-04-07T20:53:39.004Z,4.97
2018-04-07T20:56:06.502Z,5.27
2018-04-07T20:58:34.042Z,4.23
2018-04-07T21:01:01.846Z,4.47
2018-04-07T21:03:29.295Z,4.30
2018-04-07T21:05:56.754Z,5.03
2018-04-07T21:08:24.200Z,4.30
2018-04-07T21:10:51.656Z,5.50
2018-04-07T21:13:19.528Z,5.10
2018-04-07T21:15:46.984Z,4.50
2018-04-07T21:18:14.453Z,3.80
2018-04-07T21:20:41.913Z,4.37
2018-04-07T21:23:09.370Z,4.37
2018-04-07T21:25:36.838Z,3.97
2018-04-07T21:28:04.268Z,5.80
2018-04-07T21:30:31.720Z,4.47
2018-04-07T21:32:59.191Z,4.77
2018-04-07T21:35:26.729Z,5.50
2018-04-07T21:38:11.393Z,4.93
2018-04-07T21:40:39.639Z,3.97
2018-04-07T21:45:41.288Z,8.37
2018-04-07T21:48:08.729Z,6.53
2018-04-07T21:50:36.186Z,7.67
2018-04-07T21:53:03.639Z,5.07
2018-04-07T21:55:31.098Z,5.07
2018-04-07T21:57:58.541Z,7.60
2018-04-07T22:00:26.161Z,4.90
2018-04-07T22:02:53.614Z,4.20
2018-04-07T22:05:21.153Z,3.60
2018-04-07T22:07:48.600Z,3.97
2018-04-07T22:10:16.088Z,3.97
2018-04-07T22:12:43.541Z,4.33
2018-04-07T22:15:11.001Z,3.90
2018-04-07T22:17:38.470Z,4.50
2018-04-07T22:20:05.914Z,4.47
2018-04-07T22:22:33.381Z,3.63
2018-04-07T22:25:00.856Z,3.97
2018-04-07T22:27:29.074Z,4.30
2018-04-07T22:29:56.643Z,3.70
2018-04-07T22:32:24.102Z,4.27
2018-04-07T22:34:51.557Z,3.37
2018-04-07T22:37:19.010Z,4.40
2018-04-07T22:39:46.471Z,4.67
2018-04-07T22:42:13.928Z,3.70
2018-04-07T22:44:41.409Z,3.90
2018-04-07T22:47:08.877Z,3.30
2018-04-07T22:49:36.340Z,3.27
2018-04-07T22:52:03.799Z,3.63
2018-04-07T22:54:31.256Z,3.90
2018-04-07T22:56:59.481Z,3.30
2018-04-07T22:59:26.953Z,4.10
2018-04-07T23:01:54.405Z,2.90
2018-04-07T23:04:21.887Z,3.70
2018-04-07T23:06:49.341Z,3.60
2018-04-07T23:09:16.825Z,3.90
2018-04-07T23:11:44.279Z,3.57
2018-04-07T23:14:11.712Z,3.90
2018-04-07T23:16:39.165Z,3.70
2018-04-07T23:19:06.617Z,3.53
2018-04-07T23:21:34.080Z,4.17
2018-04-07T23:24:01.537Z,3.77
2018-04-07T23:26:29.004Z,3.40
2018-04-07T23:28:56.445Z,3.60
2018-04-07T23:31:23.903Z,3.43
2018-04-07T23:33:51.357Z,3.70
2018-04-07T23:36:18.818Z,3.43
2018-04-07T23:38:46.281Z,3.17
2018-04-07T23:41:13.739Z,2.93
2018-04-07T23:43:41.190Z,2.73
2018-04-07T23:46:08.664Z,3.27
2018-04-07T23:48:36.102Z,2.80
2018-04-07T23:51:03.574Z,2.70
2018-04-07T23:53:31.028Z,2.97
2018-04-07T23:55:58.493Z,2.80
2018-04-07T23:58:25.948Z,2.60
